Hlavní strana
METAR-TAF:

METAR-TAF

Letiště :

Benátky, Itálie

Letiště Benátky Marco Polo

zeměpisná šířka: 45-30N, zeměpisná délka: 012-20E, výška: 2 m

Aktuální stav počasí

Zpráva byla vytvořena před 20 hodinami a 39 minutami, v 14:50 UTC
Severovýchodní vítr 10 kt
Teplota 6°C
Vlhkost vzduchu 61%
Tlak 1009 hPa
Viditelnost 10 km a více
Polojasno ve výšce 6000 ft

METAR: LIPZ 201450Z 05010KT 9999 SCT060 06/M01 Q1009 NOSIG

Čas: 12:29 (11:29 UTC)

Předpověď počasí

Zpráva byla vytvořena před 20 hodinami a 45 minutami, v 14:44 UTC
Předpověď platná od 20 v 12 UTC do 21 v 18 UTC
Východoseverovýchodní vítr 13 kt
Viditelnost 10 km a více
Polojasno ve výšce 5000 ft
Změna
od 21 v 10 UTC do 21 v 12 UTC
Severovýchodní vítr 18 kt s nárazy do 28 kt

TAF: LIPZ 201444Z 2012/2118 06013KT 9999 SCT050 BECMG 2110/2112 04018G28KT

Stav a předpovědi počasí z více než 4 000 letišť (zprávy METAR a TAF).

Červené a žluté tečky na mapě představují dostupné meteorologické stanice.

Když kurzor umístíte na tečku, zobrazí se název stanice.

Pak kliknutím zobrazíte stav a předpověď počasí.

Chcete-li změnit mapu, kliknutím na zelené tlačítko se znaménkem +mapu přiblížíte, kliknutím na zelené tlačítko se znaménkem – mapu oddálíte a kliknutím na zelené šipky přejdete na sousední mapy.


METAR-TAF: